createdAt,value
2019-04-07T00:01:51.425Z,45.30
2019-04-07T00:04:20.345Z,42.80
2019-04-07T00:06:48.920Z,43.73
2019-04-07T00:09:17.665Z,42.10
2019-04-07T00:11:46.091Z,44.63
2019-04-07T00:14:14.478Z,44.43
2019-04-07T00:17:04.033Z,45.43
2019-04-07T00:19:32.479Z,42.63
2019-04-07T00:22:00.953Z,44.30
2019-04-07T00:24:29.609Z,43.33
2019-04-07T00:26:58.095Z,40.77
2019-04-07T00:29:26.567Z,42.47
2019-04-07T00:31:55.010Z,44.67
2019-04-07T00:34:23.819Z,43.77
2019-04-07T00:36:52.535Z,42.90
2019-04-07T00:39:21.143Z,42.93
2019-04-07T00:41:49.652Z,44.70
2019-04-07T00:44:18.062Z,41.97
2019-04-07T00:46:46.465Z,44.33
2019-04-07T00:49:14.969Z,42.23
2019-04-07T00:51:43.661Z,42.17
2019-04-07T00:54:12.624Z,42.47
2019-04-07T00:56:41.234Z,43.70
2019-04-07T00:59:09.979Z,44.87
2019-04-07T01:01:38.538Z,43.80
2019-04-07T01:04:07.024Z,43.13
2019-04-07T01:06:35.706Z,43.50
2019-04-07T01:09:05.898Z,41.47
2019-04-07T01:11:34.360Z,39.33
2019-04-07T01:14:02.812Z,41.33
2019-04-07T01:16:31.634Z,42.13
2019-04-07T01:19:00.139Z,41.40
2019-04-07T01:21:30.337Z,41.57
2019-04-07T01:23:59.072Z,40.20
2019-04-07T01:26:27.569Z,40.87
2019-04-07T01:28:56.575Z,49.67
2019-04-07T01:31:25.122Z,46.40
2019-04-07T01:33:54.287Z,45.13
2019-04-07T01:36:22.891Z,44.40
2019-04-07T01:38:51.366Z,43.97
2019-04-07T01:41:27.603Z,45.37
2019-04-07T01:44:01.728Z,48.27
2019-04-07T01:46:52.516Z,46.43
2019-04-07T01:49:27.994Z,46.93
2019-04-07T01:52:04.167Z,47.83
2019-04-07T01:55:01.171Z,49.67
2019-04-07T01:57:47.788Z,43.83
2019-04-07T02:00:43.023Z,48.53
2019-04-07T02:03:20.732Z,48.63
2019-04-07T02:06:23.360Z,47.47
2019-04-07T02:09:00.816Z,46.30
2019-04-07T02:11:47.894Z,48.23
2019-04-07T02:14:22.470Z,47.53
2019-04-07T02:16:57.804Z,46.53
2019-04-07T02:19:41.671Z,46.83
2019-04-07T02:22:35.462Z,47.87
2019-04-07T02:25:17.314Z,48.73
2019-04-07T02:27:55.700Z,47.43
2019-04-07T02:30:33.199Z,47.73
2019-04-07T02:33:21.101Z,47.30
2019-04-07T02:36:15.534Z,48.27
2019-04-07T02:38:38.952Z,47.57
2019-04-07T02:41:33.244Z,48.27
2019-04-07T02:44:18.118Z,48.83
2019-04-07T02:47:21.404Z,48.77
2019-04-07T02:50:13.138Z,49.60
2019-04-07T02:52:59.592Z,50.17
2019-04-07T02:56:00.343Z,51.13
2019-04-07T02:58:53.108Z,50.37
2019-04-07T03:01:43.708Z,47.60
2019-04-07T03:04:46.568Z,48.77
2019-04-07T03:07:33.369Z,51.53
2019-04-07T03:10:12.977Z,50.67
2019-04-07T03:12:51.207Z,52.43
2019-04-07T03:15:48.402Z,51.07
2019-04-07T03:18:27.035Z,50.77
2019-04-07T03:21:15.875Z,56.73
2019-04-07T03:23:51.763Z,51.27
2019-04-07T03:26:38.158Z,53.73
2019-04-07T03:29:20.533Z,54.50
2019-04-07T03:32:10.257Z,57.27
2019-04-07T03:35:14.765Z,58.13
2019-04-07T03:38:16.990Z,57.10
2019-04-07T03:40:59.340Z,56.63
2019-04-07T03:43:52.810Z,54.13
2019-04-07T03:46:47.401Z,54.43
2019-04-07T03:49:23.835Z,55.17
2019-04-07T03:52:29.694Z,51.87
2019-04-07T03:55:08.680Z,52.03
2019-04-07T03:57:54.935Z,54.13
2019-04-07T04:01:17.519Z,53.23
2019-04-07T04:03:53.876Z,52.33
2019-04-07T04:06:40.676Z,55.27
2019-04-07T04:09:17.410Z,51.43
2019-04-07T04:12:13.545Z,52.27
2019-04-07T04:14:50.786Z,55.17
2019-04-07T04:17:19.504Z,54.70
2019-04-07T04:19:48.169Z,52.20
2019-04-07T04:22:16.629Z,53.77
2019-04-07T04:24:45.152Z,57.10
2019-04-07T04:27:13.524Z,52.30
2019-04-07T04:29:42.068Z,57.00
2019-04-07T04:32:10.677Z,54.67
2019-04-07T04:34:39.092Z,54.67
2019-04-07T04:37:08.075Z,53.53
2019-04-07T04:39:37.501Z,52.00
2019-04-07T04:42:06.127Z,51.57
2019-04-07T04:44:34.624Z,50.63
2019-04-07T04:47:03.118Z,50.37
2019-04-07T04:49:31.663Z,51.23
2019-04-07T04:52:00.463Z,49.33
2019-04-07T04:54:29.334Z,49.27
2019-04-07T04:56:57.733Z,49.43
2019-04-07T04:59:26.291Z,49.50
2019-04-07T05:01:56.465Z,51.17
2019-04-07T05:04:25.957Z,47.50
2019-04-07T05:06:55.268Z,47.67
2019-04-07T05:09:24.460Z,48.83
2019-04-07T05:11:53.024Z,50.40
2019-04-07T05:14:22.006Z,48.53
2019-04-07T05:16:50.624Z,44.60
2019-04-07T05:19:19.350Z,45.50
2019-04-07T05:21:47.847Z,48.93
2019-04-07T05:24:16.911Z,46.77
2019-04-07T05:26:45.613Z,45.33
2019-04-07T05:29:14.630Z,46.77
2019-04-07T05:31:43.869Z,48.07
2019-04-07T05:34:16.435Z,47.77
2019-04-07T05:36:43.327Z,46.20
2019-04-07T05:39:11.956Z,46.63
2019-04-07T05:41:40.358Z,46.17
2019-04-07T05:44:08.890Z,49.03
2019-04-07T05:46:40.256Z,48.00
2019-04-07T05:49:07.635Z,46.97
2019-04-07T05:51:36.124Z,46.77
2019-04-07T05:54:04.609Z,46.60
2019-04-07T05:56:33.153Z,45.47
2019-04-07T05:59:01.773Z,47.77
2019-04-07T06:01:30.348Z,46.57
2019-04-07T06:03:58.845Z,47.53
2019-04-07T06:06:27.905Z,48.47
2019-04-07T06:08:56.605Z,46.53
2019-04-07T06:11:25.086Z,46.63
2019-04-07T06:13:53.555Z,45.80
2019-04-07T06:16:22.587Z,47.63
2019-04-07T06:18:51.243Z,46.63
2019-04-07T06:21:19.726Z,44.40
2019-04-07T06:23:48.598Z,44.63
2019-04-07T06:26:17.526Z,45.20
2019-04-07T06:28:51.149Z,44.73
2019-04-07T06:31:16.483Z,47.57
2019-04-07T06:33:44.911Z,43.60
2019-04-07T06:36:17.303Z,42.23
2019-04-07T06:38:50.340Z,44.10
2019-04-07T06:41:13.840Z,41.67
2019-04-07T06:43:42.338Z,41.43
2019-04-07T06:46:36.875Z,41.67
2019-04-07T06:49:15.030Z,40.87
2019-04-07T06:52:05.845Z,41.40
2019-04-07T06:54:58.910Z,39.97
2019-04-07T06:57:55.675Z,39.60
2019-04-07T07:01:03.339Z,40.07
2019-04-07T07:03:53.827Z,36.70
2019-04-07T07:06:34.239Z,38.90
2019-04-07T07:09:31.789Z,37.20
2019-04-07T07:12:24.698Z,36.73
2019-04-07T07:15:07.937Z,36.27
2019-04-07T07:17:50.687Z,36.17
2019-04-07T07:20:36.157Z,34.47
2019-04-07T07:23:13.364Z,35.87
2019-04-07T07:25:42.451Z,33.00
2019-04-07T07:28:12.519Z,32.80
2019-04-07T07:30:41.468Z,32.23
2019-04-07T07:33:11.175Z,31.43
2019-04-07T07:35:39.847Z,32.47
2019-04-07T07:38:09.222Z,30.50
2019-04-07T07:40:38.530Z,33.33
2019-04-07T07:43:07.255Z,29.53
2019-04-07T07:45:36.210Z,30.53
2019-04-07T07:48:05.373Z,28.93
2019-04-07T07:50:34.710Z,29.20
2019-04-07T07:53:06.794Z,27.53
2019-04-07T07:55:37.620Z,28.23
2019-04-07T07:58:05.643Z,27.57
2019-04-07T08:00:40.005Z,27.47
2019-04-07T08:03:05.944Z,25.90
2019-04-07T08:05:34.701Z,26.23
2019-04-07T08:08:03.642Z,25.43
2019-04-07T08:10:32.169Z,24.80
2019-04-07T08:13:04.772Z,24.23
2019-04-07T08:15:32.239Z,24.80
2019-04-07T08:18:04.774Z,24.33
2019-04-07T08:20:31.740Z,23.50
2019-04-07T08:23:01.072Z,23.07
2019-04-07T08:25:30.259Z,22.77
2019-04-07T08:28:02.165Z,23.33
2019-04-07T08:30:29.115Z,21.83
2019-04-07T08:32:59.524Z,21.67
2019-04-07T08:35:28.770Z,21.70
2019-04-07T08:37:57.623Z,19.20
2019-04-07T08:40:27.442Z,19.37
2019-04-07T08:42:56.174Z,18.80
2019-04-07T08:45:26.766Z,17.87
2019-04-07T08:47:55.472Z,17.07
2019-04-07T08:50:27.669Z,17.03
2019-04-07T08:52:55.351Z,17.53
2019-04-07T08:55:23.991Z,17.83
2019-04-07T08:57:52.636Z,16.87
2019-04-07T09:00:23.335Z,16.43
2019-04-07T09:03:02.154Z,16.43
2019-04-07T09:05:27.769Z,15.53
2019-04-07T09:07:55.827Z,15.97
2019-04-07T09:10:34.811Z,16.17
2019-04-07T09:13:10.429Z,15.50
2019-04-07T09:15:49.993Z,15.40
2019-04-07T09:18:28.104Z,14.97
2019-04-07T09:21:18.336Z,13.70
2019-04-07T09:24:04.952Z,13.83
2019-04-07T09:26:52.592Z,13.90
2019-04-07T09:29:39.281Z,12.83
2019-04-07T09:32:36.047Z,13.07
2019-04-07T09:35:32.086Z,13.33
2019-04-07T09:38:21.662Z,12.60
2019-04-07T09:41:01.658Z,12.20
2019-04-07T09:43:48.522Z,12.37
2019-04-07T09:46:34.463Z,13.03
2019-04-07T09:49:26.067Z,13.63
2019-04-07T09:52:15.702Z,12.93
2019-04-07T09:55:09.722Z,12.90
2019-04-07T09:57:50.708Z,13.17
2019-04-07T10:00:27.092Z,13.73
2019-04-07T10:03:16.343Z,12.37
2019-04-07T10:06:10.684Z,12.93
2019-04-07T10:08:55.462Z,13.23
2019-04-07T10:11:33.896Z,13.00
2019-04-07T10:14:27.787Z,13.43
2019-04-07T10:17:14.437Z,12.83
2019-04-07T10:20:02.232Z,13.20
2019-04-07T10:22:46.185Z,13.20
2019-04-07T10:25:40.306Z,13.87
2019-04-07T10:28:17.606Z,12.97
2019-04-07T10:31:04.715Z,14.00
2019-04-07T10:33:45.064Z,13.77
2019-04-07T10:36:45.017Z,14.23
2019-04-07T10:39:31.832Z,14.67
2019-04-07T10:42:19.007Z,14.93
2019-04-07T10:45:05.887Z,14.10
2019-04-07T10:47:56.815Z,13.20
2019-04-07T10:50:42.675Z,13.87
2019-04-07T10:53:30.853Z,14.03
2019-04-07T10:56:17.472Z,15.27
2019-04-07T10:59:17.537Z,13.87
2019-04-07T11:02:02.508Z,14.40
2019-04-07T11:04:51.374Z,13.67
2019-04-07T11:07:38.239Z,13.37
2019-04-07T11:10:32.983Z,14.17
2019-04-07T11:13:22.058Z,14.97
2019-04-07T11:16:10.282Z,16.30
2019-04-07T11:19:04.561Z,16.30
2019-04-07T11:22:04.634Z,16.23
2019-04-07T11:24:51.505Z,15.93
2019-04-07T11:27:51.616Z,16.37
2019-04-07T11:30:45.418Z,15.27
2019-04-07T11:33:41.428Z,17.13
2019-04-07T11:36:18.000Z,17.20
2019-04-07T11:39:03.924Z,18.00
2019-04-07T11:41:54.811Z,18.30
2019-04-07T11:44:36.614Z,17.33
2019-04-07T11:47:28.717Z,16.47
2019-04-07T11:50:04.971Z,17.17
2019-04-07T11:52:48.314Z,15.97
2019-04-07T11:55:39.171Z,17.63
2019-04-07T11:58:16.946Z,17.50
2019-04-07T12:01:04.650Z,17.13
2019-04-07T12:03:55.827Z,17.70
2019-04-07T12:06:51.601Z,17.63
2019-04-07T12:09:37.607Z,17.07
2019-04-07T12:15:24.194Z,18.63
2019-04-07T12:18:09.736Z,17.77
2019-04-07T12:20:47.248Z,17.80
2019-04-07T12:23:54.859Z,16.83
2019-04-07T12:26:37.326Z,17.73
2019-04-07T12:29:28.703Z,17.50
2019-04-07T12:32:17.055Z,18.33
2019-04-07T12:35:04.152Z,18.50
2019-04-07T12:38:01.530Z,17.27
2019-04-07T12:40:41.981Z,18.13
2019-04-07T12:43:33.926Z,18.43
2019-04-07T12:46:25.432Z,18.00
2019-04-07T12:49:09.050Z,20.13
2019-04-07T12:51:55.994Z,19.53
2019-04-07T12:54:34.206Z,19.47
2019-04-07T12:57:17.676Z,19.17
2019-04-07T13:00:08.435Z,19.37
2019-04-07T13:02:57.073Z,18.50
2019-04-07T13:05:54.127Z,18.80
2019-04-07T13:08:29.171Z,19.07
2019-04-07T13:11:25.398Z,18.80
2019-04-07T13:14:22.531Z,22.40
2019-04-07T13:17:12.618Z,21.73
2019-04-07T13:19:58.662Z,19.97
2019-04-07T13:22:45.580Z,18.67
2019-04-07T13:25:23.956Z,18.73
2019-04-07T13:27:59.898Z,19.00
2019-04-07T13:30:36.565Z,19.33
2019-04-07T13:33:20.247Z,18.63
2019-04-07T13:36:28.362Z,19.10
2019-04-07T13:39:39.209Z,18.10
2019-04-07T13:42:16.401Z,18.30
2019-04-07T13:45:03.953Z,16.50
2019-04-07T13:47:42.068Z,15.83
2019-04-07T13:50:24.678Z,16.23
2019-04-07T13:53:18.412Z,16.70
2019-04-07T13:56:12.109Z,17.50
2019-04-07T13:59:10.125Z,15.73
2019-04-07T14:02:06.382Z,15.80
2019-04-07T14:04:38.045Z,16.33
2019-04-07T14:07:26.302Z,16.57
2019-04-07T14:10:11.336Z,16.27
2019-04-07T14:13:05.298Z,16.73
2019-04-07T14:16:04.449Z,17.47
2019-04-07T14:18:54.340Z,16.73
2019-04-07T14:21:50.471Z,15.47
2019-04-07T14:24:48.244Z,16.00
2019-04-07T14:27:32.581Z,14.93
2019-04-07T14:30:18.058Z,15.90
2019-04-07T14:33:02.279Z,16.00
2019-04-07T14:35:45.960Z,15.20
2019-04-07T14:38:27.605Z,15.73
2019-04-07T14:41:14.808Z,15.63
2019-04-07T14:44:15.102Z,15.77
2019-04-07T14:46:55.656Z,17.00
2019-04-07T14:50:02.046Z,15.17
2019-04-07T14:53:07.774Z,15.87
2019-04-07T14:55:50.906Z,15.43
2019-04-07T14:58:36.923Z,14.67
2019-04-07T15:01:37.855Z,16.07
2019-04-07T15:04:06.529Z,16.83
2019-04-07T15:06:37.082Z,15.50
2019-04-07T15:09:22.562Z,16.60
2019-04-07T15:11:59.855Z,15.07
2019-04-07T15:14:31.472Z,15.60
2019-04-07T15:17:00.327Z,15.83
2019-04-07T15:19:38.651Z,16.00
2019-04-07T15:22:07.864Z,15.80
2019-04-07T15:24:37.645Z,15.10
2019-04-07T15:27:07.138Z,16.13
2019-04-07T15:29:40.767Z,15.47
2019-04-07T15:32:07.208Z,16.43
2019-04-07T15:34:39.568Z,16.00
2019-04-07T15:37:06.793Z,15.60
2019-04-07T15:39:42.778Z,16.03
2019-04-07T15:42:14.989Z,16.83
2019-04-07T15:44:42.746Z,16.67
2019-04-07T15:47:12.035Z,15.93
2019-04-07T15:49:41.909Z,16.73
2019-04-07T15:52:11.265Z,17.23
2019-04-07T15:54:40.296Z,17.10
2019-04-07T15:57:09.966Z,16.63
2019-04-07T15:59:39.269Z,16.53
2019-04-07T16:02:10.834Z,16.00
2019-04-07T16:04:38.388Z,16.23
2019-04-07T16:07:06.901Z,15.93
2019-04-07T16:09:45.210Z,16.90
2019-04-07T16:12:06.495Z,16.50
2019-04-07T16:14:35.212Z,17.00
2019-04-07T16:17:06.330Z,17.03
2019-04-07T16:19:40.359Z,16.03
2019-04-07T16:22:06.034Z,16.00
2019-04-07T16:24:34.780Z,15.93
2019-04-07T16:27:06.528Z,16.40
2019-04-07T16:29:33.673Z,16.97
2019-04-07T16:32:03.011Z,15.97
2019-04-07T16:34:31.577Z,16.37
2019-04-07T16:37:00.460Z,16.30
2019-04-07T16:39:32.402Z,16.57
2019-04-07T16:41:59.362Z,16.90
2019-04-07T16:44:27.956Z,16.70
2019-04-07T16:46:59.184Z,16.60
2019-04-07T16:49:26.952Z,17.70
2019-04-07T16:51:58.296Z,18.47
2019-04-07T16:54:26.543Z,19.03
2019-04-07T16:56:57.510Z,18.13
2019-04-07T16:59:26.332Z,18.93
2019-04-07T17:01:55.059Z,19.70
2019-04-07T17:04:24.438Z,20.17
2019-04-07T17:07:00.240Z,21.03
2019-04-07T17:09:29.344Z,21.73
2019-04-07T17:11:57.900Z,19.90
2019-04-07T17:14:26.909Z,21.13
2019-04-07T17:16:55.838Z,20.70
2019-04-07T17:19:27.309Z,20.63
2019-04-07T17:21:56.293Z,20.80
2019-04-07T17:24:28.995Z,19.80
2019-04-07T17:26:56.300Z,21.40
2019-04-07T17:29:27.434Z,20.47
2019-04-07T17:31:55.533Z,20.87
2019-04-07T17:34:24.133Z,21.40
2019-04-07T17:36:55.980Z,22.53
2019-04-07T17:39:41.945Z,20.33
2019-04-07T17:42:14.476Z,20.67
2019-04-07T17:45:11.694Z,21.40
2019-04-07T17:48:04.081Z,21.07
2019-04-07T17:50:49.844Z,20.80
2019-04-07T17:53:41.285Z,20.87
2019-04-07T17:56:29.847Z,20.80
2019-04-07T17:59:24.236Z,20.93
2019-04-07T18:02:04.470Z,22.30
2019-04-07T18:04:51.969Z,20.90
2019-04-07T18:07:28.737Z,21.00
2019-04-07T18:10:32.443Z,21.87
2019-04-07T18:13:43.301Z,21.17
2019-04-07T18:16:21.244Z,22.53
2019-04-07T18:19:10.906Z,21.77
2019-04-07T18:22:18.188Z,23.67
2019-04-07T18:24:59.647Z,23.47
2019-04-07T18:27:55.437Z,22.13
2019-04-07T18:30:35.837Z,24.50
2019-04-07T18:33:31.360Z,22.67
2019-04-07T18:36:14.586Z,22.77
2019-04-07T18:39:01.236Z,22.03
2019-04-07T18:41:58.405Z,22.37
2019-04-07T18:44:40.372Z,23.13
2019-04-07T18:47:44.593Z,22.17
2019-04-07T18:50:43.320Z,22.93
2019-04-07T18:53:33.903Z,21.77
2019-04-07T18:56:25.080Z,21.10
2019-04-07T18:59:20.359Z,23.07
2019-04-07T19:01:56.230Z,21.80
2019-04-07T19:04:31.660Z,22.07
2019-04-07T19:07:16.974Z,20.97
2019-04-07T19:10:15.493Z,20.87
2019-04-07T19:13:05.039Z,21.03
2019-04-07T19:15:51.984Z,21.63
2019-04-07T19:18:40.215Z,20.90
2019-04-07T19:21:27.869Z,20.07
2019-04-07T19:24:19.549Z,21.23
2019-04-07T19:26:54.941Z,20.87
2019-04-07T19:29:43.066Z,20.90
2019-04-07T19:32:27.644Z,24.30
2019-04-07T19:35:15.159Z,22.53
2019-04-07T19:38:02.737Z,20.87
2019-04-07T19:40:42.085Z,19.50
2019-04-07T19:43:36.109Z,20.80
2019-04-07T19:46:26.470Z,20.70
2019-04-07T19:49:20.580Z,21.83
2019-04-07T19:52:05.401Z,21.10
2019-04-07T19:54:51.076Z,22.20
2019-04-07T19:57:37.379Z,21.60
2019-04-07T20:00:31.041Z,21.30
2019-04-07T20:03:36.970Z,21.03
2019-04-07T20:06:12.912Z,22.37
2019-04-07T20:09:17.078Z,21.47
2019-04-07T20:12:06.498Z,21.57
2019-04-07T20:15:06.572Z,20.87
2019-04-07T20:17:39.271Z,21.70
2019-04-07T20:20:26.712Z,22.67
2019-04-07T20:23:23.306Z,22.07
2019-04-07T20:26:22.291Z,20.70
2019-04-07T20:29:12.634Z,21.90
2019-04-07T20:31:59.321Z,21.80
2019-04-07T20:34:50.088Z,21.73
2019-04-07T20:37:46.715Z,22.90
2019-04-07T20:40:25.775Z,22.87
2019-04-07T20:43:17.565Z,21.87
2019-04-07T20:46:13.133Z,20.87
2019-04-07T20:48:54.022Z,23.17
2019-04-07T20:51:50.651Z,21.37
2019-04-07T20:54:34.529Z,20.57
2019-04-07T20:57:39.272Z,23.23
2019-04-07T21:00:26.021Z,22.03
2019-04-07T21:03:23.677Z,21.73
2019-04-07T21:06:17.358Z,22.20
2019-04-07T21:09:03.848Z,23.37
2019-04-07T21:11:45.808Z,23.17
2019-04-07T21:14:31.513Z,23.97
2019-04-07T21:17:22.304Z,23.07
2019-04-07T21:20:11.814Z,24.53
2019-04-07T21:22:48.637Z,24.17
2019-04-07T21:25:42.120Z,23.07
2019-04-07T21:28:22.646Z,23.90
2019-04-07T21:31:14.169Z,24.10
2019-04-07T21:33:59.188Z,25.17
2019-04-07T21:36:39.304Z,24.37
2019-04-07T21:39:16.292Z,24.33
2019-04-07T21:41:58.381Z,24.33
2019-04-07T21:44:40.089Z,24.60
2019-04-07T21:47:26.706Z,25.10
2019-04-07T21:50:26.910Z,23.60
2019-04-07T21:53:08.453Z,24.33
2019-04-07T21:55:59.316Z,25.53
2019-04-07T21:58:51.998Z,25.53
2019-04-07T22:01:38.936Z,25.67
2019-04-07T22:04:24.886Z,25.93
2019-04-07T22:07:09.094Z,26.57
2019-04-07T22:09:42.771Z,27.90
2019-04-07T22:12:11.384Z,27.87
2019-04-07T22:14:41.829Z,27.57
2019-04-07T22:17:10.072Z,27.37
2019-04-07T22:19:44.130Z,28.70
2019-04-07T22:22:08.821Z,28.57
2019-04-07T22:24:38.330Z,28.07
2019-04-07T22:27:07.639Z,28.07
2019-04-07T22:29:36.119Z,28.70
2019-04-07T22:32:05.316Z,27.70
2019-04-07T22:34:34.100Z,27.97
2019-04-07T22:37:02.669Z,27.63
2019-04-07T22:39:32.082Z,28.13
2019-04-07T22:42:00.805Z,28.77
2019-04-07T22:44:29.392Z,29.40
2019-04-07T22:46:58.599Z,28.77
2019-04-07T22:49:31.497Z,28.40
2019-04-07T22:51:57.679Z,29.43
2019-04-07T22:54:30.158Z,31.23
2019-04-07T22:56:56.589Z,30.53
2019-04-07T22:59:25.941Z,31.60
2019-04-07T23:02:00.716Z,31.50
2019-04-07T23:04:30.000Z,31.47
2019-04-07T23:06:58.676Z,30.70
2019-04-07T23:09:27.248Z,30.83
2019-04-07T23:11:56.595Z,30.93
2019-04-07T23:14:25.410Z,32.30
2019-04-07T23:16:54.257Z,32.17
2019-04-07T23:19:22.853Z,31.93
2019-04-07T23:21:51.352Z,29.80
2019-04-07T23:24:19.874Z,33.23
2019-04-07T23:26:48.842Z,31.23
2019-04-07T23:29:17.722Z,32.30
2019-04-07T23:31:47.159Z,31.77
2019-04-07T23:34:15.758Z,33.17
2019-04-07T23:36:44.288Z,32.20
2019-04-07T23:39:13.130Z,33.10
2019-04-07T23:41:41.820Z,33.37
2019-04-07T23:44:10.315Z,33.07
2019-04-07T23:46:39.333Z,33.03
2019-04-07T23:49:07.990Z,35.17
2019-04-07T23:51:37.192Z,32.90
2019-04-07T23:54:07.412Z,35.47
2019-04-07T23:56:36.084Z,34.80
2019-04-07T23:59:04.760Z,34.03
